X  Schlie├čen METAR Luftfahrt Wetterdaten        LGTS Thessaloniki Macedonia International
Temperatur
30°C Temperatur
22°C Taupunkt
62% Feuchtigkeit



Wind
3 M/S
7 MPS
11 KM/S
6 KTS



310°
NW
Aktuelle Wetterlage

Mostly Sunny Meist sonnig
Luftdruck 1016 (hPa) - 30 (inHg)
Sichtweite 6 (Meile) - 10 (Km)
Flughafen
Flughafen Code LGTS

Position : Thessaloniki Macedonia International
Entfernung: 85 (Km)

Metar:
METAR LGTS 210750Z 31006KT CAVOK 30/22 Q1016 NOSIG

Zeit: 21-06-2024 10:50 EEST